1999 CATHY (1998357S11101)


On this page: IBTrACS data - Map and Plots - Positions - Intensities - Original source data

Summary

Start Dec 22
End Dec 30
Basin SI
LMI 60 kt
Sources jtwc_sh
bom
neumann
In WMO? Yes
Previous storm 1999 HSK0899 (SP)
Previous in basin 1999 BILLY (SI)
Concurrent storms 1999 CORA (SP)
1999 HSK0899 (SP)
1999 CATHY (SI)
Next in basin Missing
Next storm 1999 MISSING (WP)

top of page IBTrACS Data: File Access

Image of storm

top of page Plots:

Map of storm track will not appear if FTP is down
Time series of cyclone Maximum Sustained Wind will not appear if FTP is down
Time series of cyclone Minimum Central Pressure will not appear if FTP is down

top of page Track Data:Position

jtwc_sh bom neumann
Date Lat Lon Lat Lon Lat Lon
1998-12-22 18:00:00 -11.0 100.6
1998-12-23 00:00:00 -11.4 100.7
1998-12-23 06:00:00 -12.1 100.8
1998-12-23 12:00:00 -12.3 100.4 -12.9 100.9 -12.3 100.4
1998-12-23 18:00:00 -13.4 100.3 -13.6 101.1 -13.4 100.3
1998-12-24 00:00:00 -14.5 100.1 -14.6 101.0 -14.5 100.1
1998-12-24 06:00:00 -15.2 99.8 -15.5 100.5 -15.2 99.8
1998-12-24 12:00:00 -15.6 99.6 -15.8 100.1 -15.6 99.6
1998-12-24 18:00:00 -16.0 99.2 -15.9 99.6 -16.0 99.2
1998-12-25 00:00:00 -16.3 98.7 -15.9 99.0 -16.3 98.7
1998-12-25 06:00:00 -16.5 98.2 -16.2 98.4 -16.5 98.2
1998-12-25 12:00:00 -16.6 97.6 -16.6 97.9 -16.6 97.6
1998-12-25 18:00:00 -16.6 96.8 -16.8 97.1 -16.6 96.8
1998-12-26 00:00:00 -16.6 95.9 -16.7 96.3 -16.6 95.9
1998-12-26 06:00:00 -16.6 95.3 -16.7 95.6 -16.6 95.3
1998-12-26 12:00:00 -16.6 94.7 -16.6 95.0 -16.6 94.7
1998-12-26 18:00:00 -16.6 94.2 -16.4 94.6 -16.6 94.2
1998-12-27 00:00:00 -16.5 93.7 -16.3 94.0 -16.5 93.7
1998-12-27 06:00:00 -16.3 93.2 -16.2 93.4 -16.3 93.2
1998-12-27 12:00:00 -16.1 92.7 -16.1 92.8 -16.1 92.7
1998-12-27 18:00:00 -15.8 92.1 -16.0 91.9 -15.8 92.1
1998-12-28 00:00:00 -15.8 91.0 -15.9 90.8 -15.8 91.0
1998-12-28 06:00:00 -15.6 89.6 -15.9 89.8 -15.6 89.6
1998-12-28 12:00:00 -15.2 89.0 -15.2 89.0
1998-12-28 18:00:00 -14.9 88.4 -14.9 88.4
jtwc_sh bom neumann
1998-12-29 00:00:00 -14.6 87.8 -14.6 87.8
1998-12-29 06:00:00 -14.5 87.3 -14.5 87.3
1998-12-29 12:00:00 -14.1 86.5 -14.1 86.5
1998-12-29 18:00:00 -13.7 85.8
1998-12-30 00:00:00 -13.3 85.2
1998-12-30 06:00:00 -12.9 84.6
1998-12-30 12:00:00 -12.7 84.1
1998-12-30 18:00:00 -12.5 83.4

top of pageTrack Data:Intensity

jtwc_sh bom neumann
Date Wind Pres Wind Pres Wind Pres
1998-12-22 18:00:00 23. 1002.
1998-12-23 00:00:00 23. 1002.
1998-12-23 06:00:00 23. 1002.
1998-12-23 12:00:00 20. 27. 1000. 20.
1998-12-23 18:00:00 25. 27. 1000. 25.
1998-12-24 00:00:00 25. 29. 998. 25.
1998-12-24 06:00:00 30. 35. 995. 30.
1998-12-24 12:00:00 30. 41. 990. 30.
1998-12-24 18:00:00 30. 49. 985. 30.
1998-12-25 00:00:00 35. 49. 985. 35.
1998-12-25 06:00:00 35. 54. 980. 35.
1998-12-25 12:00:00 35. 54. 980. 35.
1998-12-25 18:00:00 35. 60. 975. 35.
1998-12-26 00:00:00 35. 60. 975. 35.
1998-12-26 06:00:00 35. 60. 975. 35.
1998-12-26 12:00:00 40. 54. 980. 40.
1998-12-26 18:00:00 40. 49. 985. 40.
1998-12-27 00:00:00 40. 39. 992. 40.
1998-12-27 06:00:00 40. 33. 996. 40.
1998-12-27 12:00:00 35. 27. 1000. 35.
1998-12-27 18:00:00 35. 23. 1002. 35.
1998-12-28 00:00:00 25. 21. 1004. 25.
1998-12-28 06:00:00 25. 21. 1004. 25.
1998-12-28 12:00:00 25. 25.
1998-12-28 18:00:00 25. 25.
jtwc_sh bom neumann
1998-12-29 00:00:00 25. 25.
1998-12-29 06:00:00 25. 25.
1998-12-29 12:00:00 25. 25.
1998-12-29 18:00:00 25.
1998-12-30 00:00:00 25.
1998-12-30 06:00:00 25.
1998-12-30 12:00:00 25.
1998-12-30 18:00:00 25.

top of page Links to source data

Source Source file Format
jtwc_sh bsh101999.txt ATCF
bom IDCKMSTM0S.csv:Line=21139:CATHY CSV file (from Excel file)
neumann tracks.sh:Storm=1149:CATHY:BSH101999:JTWC HURDAT